Time;durP1;ratioP1;P1;durP2;ratioP2;P2;SDS_P1;SDS_P2;PMS_P1;PMS_P2;Temp;Humidity;BMP_temperature;BMP_pressure;BME280_temperature;BME280_humidity;BME280_pressure;Samples;Min_cycle;Max_cycle;Signal;HPM_P1;HPM_P2
2023/02/28 00:01:19;;;;;;;6.05;2.60;;;;;;;-6.92;84.32;99942.09;5067776;28;20055;-36
2023/02/28 00:03:45;;;;;;;6.13;3.38;;;;;;;-6.75;84.54;99981.50;5068447;28;20102;-35
2023/02/28 00:06:11;;;;;;;6.22;2.33;;;;;;;-6.78;84.81;99966.22;5050846;28;20426;-36
2023/02/28 00:08:38;;;;;;;8.52;2.42;;;;;;;-6.75;84.51;99968.03;5068282;28;20048;-35
2023/02/28 00:11:06;;;;;;;6.07;3.08;;;;;;;-6.75;84.53;99962.97;5067267;28;20542;-34
2023/02/28 00:13:34;;;;;;;4.30;1.75;;;;;;;-6.95;84.57;99931.84;5067568;28;20130;-36
2023/02/28 00:16:05;;;;;;;2.35;1.58;;;;;;;-7.03;84.67;99920.59;5067387;28;20131;-37
2023/02/28 00:18:31;;;;;;;2.35;1.25;;;;;;;-6.87;84.79;99945.66;5067934;28;20041;-36
2023/02/28 00:20:58;;;;;;;4.32;2.53;;;;;;;-6.83;85.21;99950.03;5084101;28;20072;-37
2023/02/28 00:23:24;;;;;;;6.68;3.05;;;;;;;-7.06;84.85;99911.22;5068151;28;20043;-36
2023/02/28 00:25:50;;;;;;;3.80;2.33;;;;;;;-6.88;85.06;99947.31;5069228;28;20036;-35
2023/02/28 00:28:16;;;;;;;9.65;3.80;;;;;;;-6.90;84.94;99943.84;5051032;28;20041;-36
2023/02/28 00:30:42;;;;;;;6.03;2.47;;;;;;;-6.89;85.39;99950.66;5067883;28;20743;-36
2023/02/28 00:33:08;;;;;;;4.25;2.28;;;;;;;-6.94;85.59;99938.63;5047266;28;20423;-35
2023/02/28 00:35:34;;;;;;;10.07;3.75;;;;;;;-6.99;85.61;99940.13;5105140;28;20036;-36
2023/02/28 00:38:00;;;;;;;5.20;2.83;;;;;;;-7.04;85.75;99942.47;5072180;28;20048;-35
2023/02/28 00:40:27;;;;;;;7.90;3.78;;;;;;;-7.24;85.61;99910.50;5071059;28;20461;-36
2023/02/28 00:42:53;;;;;;;4.75;2.17;;;;;;;-7.11;85.98;99940.50;5087932;28;20533;-35
2023/02/28 00:45:22;;;;;;;8.63;3.75;;;;;;;-7.10;86.04;99942.22;5071887;28;20131;-40
2023/02/28 00:47:49;;;;;;;8.10;3.70;;;;;;;-7.08;86.19;99935.56;5069115;28;20048;-35
2023/02/28 00:50:20;;;;;;;8.63;4.10;;;;;;;-7.05;86.18;99927.25;5070731;28;20036;-37
2023/02/28 00:52:47;;;;;;;10.05;4.25;;;;;;;-7.00;86.11;99919.03;5066467;28;20551;-35
2023/02/28 00:55:14;;;;;;;7.07;2.25;;;;;;;-6.99;86.05;99914.84;5071673;28;20040;-36
2023/02/28 00:57:40;;;;;;;4.35;2.58;;;;;;;-6.99;85.91;99919.91;5070473;28;20044;-36
2023/02/28 01:00:07;;;;;;;2.42;1.60;;;;;;;-7.08;85.89;99897.69;5069851;28;20555;-36
2023/02/28 01:02:34;;;;;;;4.32;2.05;;;;;;;-7.04;85.77;99891.94;5071700;28;20047;-35
2023/02/28 01:05:00;;;;;;;5.97;2.95;;;;;;;-7.15;85.65;99877.16;5083411;28;20087;-34
2023/02/28 01:07:29;;;;;;;7.90;3.00;;;;;;;-7.06;85.80;99902.78;5067155;28;20072;-35
2023/02/28 01:09:55;;;;;;;9.50;3.17;;;;;;;-7.13;85.81;99878.97;5067233;28;20511;-35
2023/02/28 01:12:21;;;;;;;9.20;2.83;;;;;;;-7.39;85.67;99844.25;5070478;28;20060;-34
2023/02/28 01:14:47;;;;;;;4.78;2.90;;;;;;;-7.17;86.48;99876.25;5087155;28;20028;-35
2023/02/28 01:17:12;;;;;;;8.80;3.78;;;;;;;-7.18;86.51;99867.81;5070290;28;20044;-34
2023/02/28 01:19:38;;;;;;;6.30;2.47;;;;;;;-7.18;86.54;99852.66;5069858;28;20162;-36
2023/02/28 01:22:05;;;;;;;3.30;1.38;;;;;;;-7.20;86.62;99853.41;5104013;28;20044;-36
2023/02/28 01:24:32;;;;;;;4.97;1.67;;;;;;;-7.22;86.38;99849.97;5069977;28;20040;-34
2023/02/28 01:26:58;;;;;;;5.07;2.15;;;;;;;-7.34;86.42;99832.66;5086958;28;20048;-36
2023/02/28 01:29:24;;;;;;;5.05;2.10;;;;;;;-7.25;86.87;99843.13;5069742;28;20036;-36
2023/02/28 01:31:52;;;;;;;5.95;2.92;;;;;;;-7.29;86.58;99828.66;5071276;28;20825;-36
2023/02/28 01:34:19;;;;;;;9.60;3.70;;;;;;;-7.31;86.80;99831.13;5086153;28;20032;-36
2023/02/28 01:36:45;;;;;;;3.90;1.88;;;;;;;-7.31;86.78;99822.69;5070868;28;20138;-35
2023/02/28 01:39:12;;;;;;;4.68;2.22;;;;;;;-7.35;86.91;99818.31;5052833;28;20063;-35
2023/02/28 01:41:39;;;;;;;6.20;2.65;;;;;;;-7.37;87.04;99818.25;5071129;28;20131;-36
2023/02/28 01:44:54;;;;;;;5.72;2.95;;;;;;;-7.39;87.44;99806.38;5070521;28;20040;-35
2023/02/28 01:47:21;;;;;;;5.28;2.70;;;;;;;-7.42;87.41;99807.13;5061697;28;20040;-36
2023/02/28 01:49:47;;;;;;;4.13;2.22;;;;;;;-7.72;87.10;99756.31;5068867;28;20044;-35
2023/02/28 01:52:17;;;;;;;6.47;3.08;;;;;;;-7.44;87.31;99791.06;5069242;28;20067;-35
2023/02/28 01:54:47;;;;;;;7.60;2.80;;;;;;;-7.45;87.66;99796.91;5069400;28;20033;-36
2023/02/28 01:57:17;;;;;;;2.22;1.30;;;;;;;-7.43;87.61;99786.88;5052616;28;20044;-35
2023/02/28 01:59:49;;;;;;;6.78;3.40;;;;;;;-7.45;87.62;99781.75;5069336;28;20044;-36
2023/02/28 02:02:17;;;;;;;7.13;2.53;;;;;;;-7.44;87.78;99786.00;5068907;28;20044;-36
2023/02/28 02:04:51;;;;;;;5.22;2.55;;;;;;;-7.44;87.63;99786.00;5065481;28;20060;-37
2023/02/28 02:07:18;;;;;;;4.72;2.28;;;;;;;-7.64;87.98;99743.13;5068708;28;20131;-35
2023/02/28 02:09:44;;;;;;;3.03;1.83;;;;;;;-7.41;87.93;99775.16;5052151;28;20056;-35
2023/02/28 02:12:58;;;;;;;7.15;3.08;;;;;;;-7.40;88.04;99772.69;5068261;28;20051;-35
2023/02/28 02:16:04;;;;;;;5.22;2.10;;;;;;;-7.39;87.73;99773.56;5051543;28;20059;-35
2023/02/28 02:18:53;;;;;;;8.82;3.47;;;;;;;-7.55;88.06;99734.25;5056824;28;20581;-34
2023/02/28 02:21:37;;;;;;;3.75;2.20;;;;;;;-7.33;88.24;99768.75;5061775;28;20040;-34
2023/02/28 02:24:29;;;;;;;2.95;1.75;;;;;;;-7.35;87.82;99756.06;5050929;28;20500;-37
2023/02/28 02:27:20;;;;;;;4.55;1.75;;;;;;;-7.33;88.32;99763.69;5031627;28;20033;-36
2023/02/28 02:30:15;;;;;;;3.00;1.67;;;;;;;-7.29;88.11;99753.75;5059175;28;20048;-35
2023/02/28 02:33:16;;;;;;;4.78;2.05;;;;;;;-7.30;88.10;99751.19;5051087;28;20044;-35
2023/02/28 02:35:55;;;;;;;5.50;2.92;;;;;;;-7.28;88.31;99757.16;5049628;28;20198;-35
2023/02/28 02:38:21;;;;;;;3.60;1.77;;;;;;;-7.27;88.29;99747.09;5060142;28;20036;-36
2023/02/28 02:40:52;;;;;;;7.50;3.10;;;;;;;-7.26;87.95;99737.84;5047962;28;20448;-35
2023/02/28 02:43:26;;;;;;;3.75;2.30;;;;;;;-7.25;88.21;99726.94;5055149;28;20052;-35
2023/02/28 02:46:34;;;;;;;4.80;1.70;;;;;;;-7.27;88.21;99728.53;5067677;28;20048;-35
2023/02/28 02:49:02;;;;;;;5.00;2.03;;;;;;;-7.25;88.22;99716.84;5049865;28;20171;-34
2023/02/28 02:51:30;;;;;;;1.23;0.80;;;;;;;-7.24;88.29;99715.19;5064276;28;20059;-35
2023/02/28 02:54:15;;;;;;;5.20;2.37;;;;;;;-7.44;88.24;99679.13;5068250;28;20519;-37
2023/02/28 02:56:44;;;;;;;4.82;2.67;;;;;;;-7.22;88.02;99706.84;5031178;28;20045;-35
2023/02/28 02:59:12;;;;;;;3.57;2.10;;;;;;;-7.14;88.40;99699.56;5048152;28;20091;-36
2023/02/28 03:01:41;;;;;;;3.42;2.25;;;;;;;-7.18;88.05;99695.22;5061368;28;20048;-34
2023/02/28 03:04:17;;;;;;;2.80;1.83;;;;;;;-7.18;87.96;99696.06;5064697;28;20040;-36
2023/02/28 03:06:43;;;;;;;6.75;3.00;;;;;;;-7.18;87.63;99691.03;5062721;28;20058;-34
2023/02/28 03:09:09;;;;;;;5.45;2.38;;;;;;;-7.35;87.51;99652.53;5050442;28;20567;-35
2023/02/28 03:11:37;;;;;;;6.07;3.00;;;;;;;-7.39;87.53;99645.66;5027224;28;20140;-35
2023/02/28 03:14:06;;;;;;;5.72;2.40;;;;;;;-7.15;87.35;99688.59;5029477;28;20511;-35
2023/02/28 03:16:37;;;;;;;2.00;1.05;;;;;;;-7.16;87.57;99676.75;5029965;28;20118;-35
2023/02/28 03:19:17;;;;;;;3.25;1.98;;;;;;;-7.15;86.73;99665.84;5043785;28;20041;-34
2023/02/28 03:22:05;;;;;;;3.10;1.67;;;;;;;-7.13;86.73;99673.50;5045737;28;20092;-35
2023/02/28 03:25:04;;;;;;;5.00;2.07;;;;;;;-7.18;86.52;99650.63;5047287;28;20049;-35
2023/02/28 03:27:41;;;;;;;6.88;2.08;;;;;;;-7.21;86.33;99655.53;5048690;28;20045;-35
2023/02/28 03:30:54;;;;;;;3.17;1.70;;;;;;;-7.21;86.53;99657.19;5046337;28;20100;-34
2023/02/28 03:33:36;;;;;;;3.55;1.60;;;;;;;-7.20;86.24;99652.22;5043982;28;20056;-36
2023/02/28 03:36:12;;;;;;;4.65;2.08;;;;;;;-7.20;86.10;99646.28;5028999;28;20795;-36
2023/02/28 03:38:47;;;;;;;5.82;3.53;;;;;;;-7.20;86.00;99644.63;5046476;28;20045;-35
2023/02/28 03:41:20;;;;;;;2.50;1.65;;;;;;;-7.41;85.77;99616.97;5047285;28;20041;-34
2023/02/28 03:43:58;;;;;;;4.85;1.92;;;;;;;-7.25;85.68;99635.19;5047369;28;20454;-35
2023/02/28 03:46:25;;;;;;;5.38;2.42;;;;;;;-7.29;85.58;99622.47;5045321;28;20496;-35
2023/02/28 03:48:55;;;;;;;3.85;1.85;;;;;;;-7.49;85.78;99587.22;5029378;28;20041;-35
2023/02/28 03:51:23;;;;;;;3.90;1.98;;;;;;;-7.34;85.89;99613.84;5045687;28;20520;-35
2023/02/28 03:53:53;;;;;;;6.28;1.90;;;;;;;-7.37;85.76;99606.16;5047047;28;20508;-36
2023/02/28 03:56:31;;;;;;;6.05;3.45;;;;;;;-7.37;85.83;99606.16;5046868;28;20106;-34
2023/02/28 03:59:03;;;;;;;8.82;3.20;;;;;;;-7.42;85.96;99584.06;5029715;28;20075;-35
2023/02/28 04:01:41;;;;;;;6.60;3.10;;;;;;;-7.40;85.60;99603.53;5046967;28;20191;-36
2023/02/28 04:04:09;;;;;;;4.40;2.05;;;;;;;-7.55;85.41;99574.38;5044067;28;20051;-35
2023/02/28 04:06:35;;;;;;;5.82;3.03;;;;;;;-7.41;85.29;99596.75;5012854;28;20083;-38
2023/02/28 04:09:03;;;;;;;5.13;2.60;;;;;;;-7.39;85.32;99577.50;5047201;28;20159;-35
2023/02/28 04:11:37;;;;;;;5.25;1.92;;;;;;;-7.41;85.00;99591.72;5048966;28;20052;-36
2023/02/28 04:14:05;;;;;;;6.60;2.38;;;;;;;-7.43;84.89;99595.84;5068287;28;20040;-35
2023/02/28 04:16:32;;;;;;;6.57;1.88;;;;;;;-7.41;84.65;99590.84;5066314;28;20051;-36
2023/02/28 04:19:01;;;;;;;3.75;2.10;;;;;;;-7.40;84.81;99588.38;5066785;28;20427;-35
2023/02/28 04:21:36;;;;;;;4.38;1.77;;;;;;;-7.73;84.42;99519.06;5046374;28;20447;-36
2023/02/28 04:24:03;;;;;;;6.75;2.70;;;;;;;-7.41;84.18;99571.53;5080964;28;20041;-36
2023/02/28 04:26:38;;;;;;;4.22;1.92;;;;;;;-7.39;84.72;99567.41;5066595;28;20044;-35
2023/02/28 04:29:05;;;;;;;4.68;2.10;;;;;;;-7.39;84.39;99556.44;5065493;28;20531;-36
2023/02/28 04:31:32;;;;;;;3.78;2.03;;;;;;;-7.40;83.95;99554.72;5066092;28;20500;-37
2023/02/28 04:33:57;;;;;;;1.73;1.15;;;;;;;-7.37;83.38;99559.84;5046839;28;20052;-35
2023/02/28 04:36:23;;;;;;;2.03;0.82;;;;;;;-7.37;83.13;99547.22;5065761;28;20052;-36
2023/02/28 04:38:49;;;;;;;4.97;2.22;;;;;;;-7.36;83.21;99544.75;5066388;28;20047;-34
2023/02/28 04:41:16;;;;;;;2.13;1.23;;;;;;;-7.34;82.68;99550.72;5061720;28;20580;-36
2023/02/28 04:43:42;;;;;;;3.05;1.73;;;;;;;-7.33;82.37;99523.81;5063150;28;20040;-35
2023/02/28 04:46:09;;;;;;;3.17;1.80;;;;;;;-7.29;82.41;99528.16;5066138;28;20041;-35
2023/02/28 04:48:38;;;;;;;4.50;1.85;;;;;;;-7.31;81.94;99519.66;5067742;28;20134;-36
2023/02/28 04:51:09;;;;;;;3.47;1.75;;;;;;;-7.40;81.84;99506.75;5064657;28;20094;-35
2023/02/28 04:53:36;;;;;;;1.70;0.82;;;;;;;-7.24;81.42;99520.75;5048216;28;20625;-36
2023/02/28 04:56:02;;;;;;;5.55;2.03;;;;;;;-7.45;80.82;99466.19;5096021;28;20041;-35
2023/02/28 04:58:29;;;;;;;3.47;1.95;;;;;;;-7.18;81.01;99533.56;5054822;28;20036;-36
2023/02/28 05:01:12;;;;;;;2.97;1.70;;;;;;;-7.17;80.44;99503.28;5064803;28;20040;-35
2023/02/28 05:03:42;;;;;;;2.83;1.67;;;;;;;-7.13;80.21;99500.09;5047996;28;20098;-35
2023/02/28 05:06:09;;;;;;;5.10;2.22;;;;;;;-7.12;79.57;99486.66;5065907;28;20091;-36
2023/02/28 05:08:35;;;;;;;1.63;1.02;;;;;;;-7.24;79.16;99470.22;5064757;28;20422;-33
2023/02/28 05:11:02;;;;;;;3.30;1.20;;;;;;;-7.03;79.06;99488.59;5066906;28;20048;-36
2023/02/28 05:13:28;;;;;;;4.90;1.50;;;;;;;-6.99;78.62;99482.84;5070287;28;20040;-36
2023/02/28 05:15:55;;;;;;;2.85;1.23;;;;;;;-7.16;78.36;99448.59;5069684;28;20508;-36
2023/02/28 05:18:21;;;;;;;1.65;0.90;;;;;;;-6.95;77.91;99475.41;5068658;28;20052;-35
2023/02/28 05:20:47;;;;;;;3.40;1.50;;;;;;;-6.90;77.57;99471.34;5058369;28;20040;-35
2023/02/28 05:23:14;;;;;;;3.60;1.92;;;;;;;-6.83;76.84;99464.81;5068771;28;20556;-36
2023/02/28 05:25:40;;;;;;;3.33;1.55;;;;;;;-7.01;76.72;99416.22;5067219;28;20040;-36
2023/02/28 05:28:07;;;;;;;2.38;1.25;;;;;;;-6.79;76.00;99422.78;5051301;28;20125;-36
2023/02/28 05:30:33;;;;;;;3.95;2.05;;;;;;;-6.63;75.78;99446.06;5069089;28;20044;-35
2023/02/28 05:32:59;;;;;;;4.65;1.70;;;;;;;-6.54;75.28;99453.06;5069106;28;20102;-36
2023/02/28 05:35:26;;;;;;;2.25;1.35;;;;;;;-6.63;74.71;99403.09;5035595;28;20134;-36
2023/02/28 05:37:52;;;;;;;3.60;2.17;;;;;;;-6.40;74.81;99436.63;5070663;28;20040;-36
2023/02/28 05:40:20;;;;;;;4.03;1.98;;;;;;;-6.46;73.94;99391.78;5066767;28;20051;-36
2023/02/28 05:42:46;;;;;;;3.80;2.03;;;;;;;-6.19;73.06;99413.59;5065759;28;20071;-35
2023/02/28 05:45:12;;;;;;;3.45;1.95;;;;;;;-6.00;72.81;99404.03;5068107;28;20041;-36
2023/02/28 05:47:38;;;;;;;3.30;1.52;;;;;;;-6.04;72.08;99376.94;5069479;28;20048;-36
2023/02/28 05:50:05;;;;;;;4.38;2.22;;;;;;;-5.32;70.91;99411.59;5068089;28;20043;-37
2023/02/28 05:52:31;;;;;;;2.80;1.67;;;;;;;-5.00;69.75;99395.50;5062559;28;20491;-37
2023/02/28 05:54:57;;;;;;;2.08;1.20;;;;;;;-4.71;68.62;99396.97;5066018;28;20115;-35
2023/02/28 05:57:24;;;;;;;3.80;1.55;;;;;;;-4.34;67.80;99392.66;5074671;28;20056;-35
2023/02/28 05:59:50;;;;;;;1.75;1.10;;;;;;;-3.78;66.85;99386.16;5069745;28;20090;-37
2023/02/28 06:02:17;;;;;;;5.97;1.27;;;;;;;-3.28;65.46;99369.19;5068118;28;20380;-36
2023/02/28 06:04:43;;;;;;;2.92;1.80;;;;;;;-3.34;64.39;99343.66;5068566;28;20040;-35
2023/02/28 06:07:10;;;;;;;2.22;1.75;;;;;;;-3.00;63.25;99350.97;5068071;28;20048;-36
2023/02/28 06:09:36;;;;;;;5.85;1.88;;;;;;;-2.86;61.87;99348.63;5034941;28;20079;-35
2023/02/28 06:12:05;;;;;;;4.47;2.20;;;;;;;-2.41;60.87;99350.06;5085210;28;20044;-35
2023/02/28 06:14:32;;;;;;;4.57;1.73;;;;;;;-2.05;59.82;99344.50;5052818;28;20237;-37
2023/02/28 06:16:59;;;;;;;5.35;1.70;;;;;;;-1.72;58.92;99348.22;5081753;28;20036;-36
2023/02/28 06:19:25;;;;;;;6.90;2.00;;;;;;;-1.60;57.29;99339.00;5066171;28;20036;-36
2023/02/28 06:21:52;;;;;;;3.13;1.38;;;;;;;-2.00;57.69;99325.03;5068092;28;20503;-35
2023/02/28 06:24:23;;;;;;;3.30;1.70;;;;;;;-2.32;57.29;99332.34;5066675;28;20139;-34
2023/02/28 06:26:49;;;;;;;3.47;1.55;;;;;;;-2.76;57.81;99332.63;5068455;28;20064;-36
2023/02/28 06:29:18;;;;;;;6.18;2.10;;;;;;;-2.82;57.61;99322.38;5069128;28;20574;-36
2023/02/28 06:31:47;;;;;;;2.55;1.50;;;;;;;-2.98;58.12;99335.72;5067979;28;20106;-36
2023/02/28 06:34:13;;;;;;;3.72;1.55;;;;;;;-3.42;58.57;99312.22;5069722;28;20043;-36
2023/02/28 06:36:40;;;;;;;4.68;1.73;;;;;;;-3.36;59.11;99306.38;5067815;28;20499;-35
2023/02/28 06:39:07;;;;;;;3.13;1.90;;;;;;;-3.17;59.15;99301.56;5052853;28;20091;-36
2023/02/28 06:41:37;;;;;;;4.03;1.50;;;;;;;-3.13;58.98;99277.91;5072489;28;20059;-36
2023/02/28 06:44:22;;;;;;;4.22;1.55;;;;;;;-3.40;59.32;99272.41;5070254;28;20036;-34
2023/02/28 06:46:48;;;;;;;4.65;1.83;;;;;;;-3.55;59.70;99264.56;5069782;28;20040;-36
2023/02/28 06:49:15;;;;;;;4.18;1.17;;;;;;;-3.76;60.04;99236.31;5082472;28;20420;-36
2023/02/28 06:51:44;;;;;;;4.88;2.05;;;;;;;-3.56;60.69;99258.63;5064719;28;20147;-36
2023/02/28 06:54:11;;;;;;;3.30;1.90;;;;;;;-3.54;60.19;99246.81;5066692;28;20041;-36
2023/02/28 06:56:37;;;;;;;4.40;1.75;;;;;;;-3.57;60.68;99245.94;5068224;28;20344;-37
2023/02/28 06:59:03;;;;;;;3.55;1.90;;;;;;;-3.49;60.38;99246.88;5084109;28;20527;-36
2023/02/28 07:01:31;;;;;;;1.95;1.05;;;;;;;-3.81;60.44;99162.59;5068434;28;20535;-38
2023/02/28 07:03:57;;;;;;;2.05;1.27;;;;;;;-3.54;60.67;99218.03;5048420;28;20059;-35
2023/02/28 07:06:24;;;;;;;3.03;1.55;;;;;;;-3.66;60.64;99213.63;5064821;28;20078;-35
2023/02/28 07:08:52;;;;;;;4.55;2.10;;;;;;;-3.51;61.22;99218.91;5068484;28;20055;-34
2023/02/28 07:11:19;;;;;;;1.85;1.27;;;;;;;-3.53;61.22;99201.97;5064923;28;20480;-36
2023/02/28 07:13:47;;;;;;;4.85;1.58;;;;;;;-3.52;61.24;99168.09;5067293;28;20041;-35
2023/02/28 07:16:13;;;;;;;3.08;1.45;;;;;;;-3.49;61.10;99150.34;5067516;28;20144;-34
2023/02/28 07:18:39;;;;;;;4.00;2.13;;;;;;;-3.18;61.39;99189.69;5099369;27;20115;-36
2023/02/28 07:21:07;;;;;;;5.13;2.25;;;;;;;-3.09;61.54;99194.91;5050775;28;20563;-36
2023/02/28 07:23:33;;;;;;;6.82;2.42;;;;;;;-3.17;61.58;99188.88;5066285;28;20041;-36
2023/02/28 07:25:59;;;;;;;3.42;1.65;;;;;;;-3.08;61.50;99182.19;5068666;28;20564;-35
2023/02/28 07:28:25;;;;;;;1.95;1.10;;;;;;;-2.97;61.52;99196.72;5064926;28;20127;-38
2023/02/28 07:30:51;;;;;;;4.50;1.55;;;;;;;-3.19;61.36;99183.75;5080292;28;20036;-36
2023/02/28 07:33:17;;;;;;;2.97;1.40;;;;;;;-3.12;61.64;99179.59;5066800;28;20132;-36
2023/02/28 07:35:43;;;;;;;5.13;2.10;;;;;;;-3.19;61.89;99152.44;5066709;28;20483;-35
2023/02/28 07:38:10;;;;;;;4.25;1.77;;;;;;;-2.79;61.77;99163.88;5065885;28;20048;-36
2023/02/28 07:40:36;;;;;;;3.50;1.90;;;;;;;-2.77;61.80;99152.00;5065599;28;20888;-35
2023/02/28 07:43:03;;;;;;;3.08;1.50;;;;;;;-2.82;61.45;99174.00;5080539;28;20044;-37
2023/02/28 07:45:31;;;;;;;3.78;1.60;;;;;;;-3.12;61.94;99142.34;5079783;28;20045;-36
2023/02/28 07:47:57;;;;;;;2.75;1.20;;;;;;;-2.90;62.46;99165.47;5055225;28;20048;-36
2023/02/28 07:50:23;;;;;;;1.45;0.88;;;;;;;-2.85;62.78;99176.53;5050060;28;20048;-36
2023/02/28 07:52:49;;;;;;;5.55;2.20;;;;;;;-2.85;62.36;99176.53;5083151;28;20043;-36
2023/02/28 07:55:16;;;;;;;4.15;1.70;;;;;;;-2.93;62.55;99153.53;5066877;28;20032;-35
2023/02/28 07:57:42;;;;;;;4.13;1.77;;;;;;;-2.82;63.08;99166.38;5066533;28;20036;-37
2023/02/28 08:00:10;;;;;;;2.25;1.55;;;;;;;-2.76;62.83;99158.81;5050374;28;20032;-34
2023/02/28 08:02:40;;;;;;;2.85;1.80;;;;;;;-2.66;62.75;99130.94;5066560;28;20059;-36
2023/02/28 08:05:07;;;;;;;3.78;1.55;;;;;;;-2.80;62.90;99136.75;5066527;28;20457;-36
2023/02/28 08:07:33;;;;;;;4.95;2.03;;;;;;;-2.79;63.11;99131.69;5067912;28;20050;-36
2023/02/28 08:09:59;;;;;;;4.90;1.50;;;;;;;-2.85;63.26;99126.53;5066394;28;20147;-36
2023/02/28 08:12:25;;;;;;;3.05;1.15;;;;;;;-2.81;63.76;99118.06;5066945;28;20093;-37
2023/02/28 08:14:51;;;;;;;3.05;1.60;;;;;;;-2.69;63.52;99120.75;5050210;28;20029;-35
2023/02/28 08:17:17;;;;;;;5.32;1.40;;;;;;;-2.68;63.52;99097.03;5068229;28;20051;-36
2023/02/28 08:19:45;;;;;;;2.63;1.67;;;;;;;-2.68;63.71;99088.53;5067557;28;20040;-36
2023/02/28 08:22:12;;;;;;;3.75;1.67;;;;;;;-2.74;63.50;99075.75;5068043;28;20086;-36
2023/02/28 08:24:38;;;;;;;8.55;2.30;;;;;;;-2.53;63.92;99064.91;5082710;28;20036;-36
2023/02/28 08:27:04;;;;;;;2.05;1.27;;;;;;;-2.18;63.67;99094.00;5066382;28;20166;-36
2023/02/28 08:29:30;;;;;;;2.45;1.10;;;;;;;-2.11;63.45;99107.63;5067173;28;20829;-35
2023/02/28 08:31:56;;;;;;;6.10;2.92;;;;;;;-2.15;63.49;99127.13;5066104;28;20199;-36
2023/02/28 08:34:23;;;;;;;4.22;2.47;;;;;;;-1.93;63.38;99146.78;5066216;28;20028;-36
2023/02/28 08:36:48;;;;;;;8.52;2.80;;;;;;;-2.05;63.45;99134.00;5066617;28;20499;-36
2023/02/28 08:39:14;;;;;;;6.47;2.40;;;;;;;-2.27;63.39;99102.44;5066396;28;20032;-35
2023/02/28 08:41:42;;;;;;;5.05;2.03;;;;;;;-1.99;63.69;99136.56;5066733;28;20063;-36
2023/02/28 08:44:08;;;;;;;2.10;1.33;;;;;;;-2.25;63.70;99107.56;5067694;28;20086;-37
2023/02/28 08:46:34;;;;;;;2.45;1.45;;;;;;;-2.23;64.33;99137.25;5067713;28;20044;-36
2023/02/28 08:49:01;;;;;;;3.75;1.77;;;;;;;-2.28;64.80;99140.59;5071465;28;20123;-36
2023/02/28 08:51:28;;;;;;;4.95;2.78;;;;;;;-2.17;64.86;99123.72;5070168;28;20130;-39
2023/02/28 08:53:55;;;;;;;5.43;2.55;;;;;;;-2.07;64.96;99130.56;5069964;28;20123;-36
2023/02/28 08:56:21;;;;;;;7.78;2.88;;;;;;;-2.10;65.23;99110.19;5071649;28;20178;-36
2023/02/28 08:58:49;;;;;;;3.90;1.50;;;;;;;-2.09;65.25;99106.78;5071151;28;20143;-36
2023/02/28 09:01:20;;;;;;;2.15;1.23;;;;;;;-2.14;65.62;99105.91;5071374;28;20048;-36
2023/02/28 09:03:47;;;;;;;7.10;1.35;;;;;;;-1.96;65.79;99092.44;5070171;28;20041;-36
2023/02/28 09:06:15;;;;;;;3.42;1.38;;;;;;;-1.90;65.62;99098.44;5069260;28;20461;-37
2023/02/28 09:08:41;;;;;;;4.38;2.05;;;;;;;-1.96;65.63;99077.16;5070653;28;20045;-35
2023/02/28 09:11:07;;;;;;;2.85;1.63;;;;;;;-1.86;65.64;99072.13;5069950;28;20133;-35
2023/02/28 09:13:34;;;;;;;2.58;1.40;;;;;;;-1.63;65.57;99074.81;5069931;28;20036;-36
2023/02/28 09:16:01;;;;;;;3.25;1.70;;;;;;;-1.67;65.39;99067.16;5069222;28;20194;-36
2023/02/28 09:18:26;;;;;;;4.85;1.52;;;;;;;-1.78;65.50;99069.66;5071082;28;20746;-36
2023/02/28 09:20:52;;;;;;;4.40;2.05;;;;;;;-1.99;65.85;99055.06;5069345;28;20180;-37
2023/02/28 09:23:18;;;;;;;4.10;2.08;;;;;;;-1.77;65.72;99073.88;5069811;28;20036;-36
2023/02/28 09:25:47;;;;;;;2.70;1.23;;;;;;;-1.76;65.57;99068.78;5069803;28;20438;-36
2023/02/28 09:28:15;;;;;;;6.03;2.08;;;;;;;-1.72;65.77;99095.13;5052731;28;20044;-37
2023/02/28 09:30:41;;;;;;;4.32;1.90;;;;;;;-1.84;66.06;99061.97;5070697;28;20234;-36
2023/02/28 09:33:08;;;;;;;4.03;1.80;;;;;;;-1.82;66.05;99101.00;5086280;28;20051;-34
2023/02/28 09:35:33;;;;;;;2.92;1.55;;;;;;;-1.99;66.72;99055.06;5068568;28;20127;-35
2023/02/28 09:38:02;;;;;;;3.45;2.20;;;;;;;-1.78;66.19;99073.00;5070927;28;20634;-36
2023/02/28 09:40:29;;;;;;;4.85;3.17;;;;;;;-1.65;66.22;99053.56;5069199;28;20133;-37
2023/02/28 09:42:56;;;;;;;3.90;2.00;;;;;;;-1.46;65.88;99051.91;5086382;28;20036;-36
2023/02/28 09:45:32;;;;;;;4.28;2.00;;;;;;;-1.46;65.72;99051.91;5048948;28;20048;-36
2023/02/28 09:48:04;;;;;;;2.88;1.42;;;;;;;-1.36;65.54;99040.91;5066126;28;20075;-36
2023/02/28 09:50:37;;;;;;;2.90;1.60;;;;;;;-1.53;65.80;99050.19;5066026;28;20131;-36
2023/02/28 09:53:10;;;;;;;3.60;2.20;;;;;;;-1.62;66.20;99040.81;5048788;28;20049;-36
2023/02/28 09:55:43;;;;;;;5.07;2.55;;;;;;;-1.66;66.46;99021.25;5064699;28;20806;-36
2023/02/28 09:58:29;;;;;;;3.35;1.90;;;;;;;-1.54;66.38;99028.09;5068395;28;20036;-35
2023/02/28 10:01:36;;;;;;;4.47;1.80;;;;;;;-1.69;66.71;99038.25;5052412;28;20040;-35
2023/02/28 10:04:51;;;;;;;4.25;1.70;;;;;;;-1.81;67.08;99016.97;5050457;28;20081;-35
2023/02/28 10:07:49;;;;;;;3.33;1.42;;;;;;;-1.91;67.96;99011.81;5028474;28;20064;-36
2023/02/28 10:10:42;;;;;;;4.63;1.83;;;;;;;-1.86;68.21;99005.06;5039663;28;20059;-36
2023/02/28 10:13:17;;;;;;;3.80;1.98;;;;;;;-1.87;68.26;98994.00;5044247;28;20076;-35
2023/02/28 10:15:45;;;;;;;2.85;1.55;;;;;;;-1.86;68.53;98999.97;5049958;28;20417;-35
2023/02/28 10:18:14;;;;;;;3.88;1.60;;;;;;;-1.83;68.57;99013.53;5065015;28;20037;-36
2023/02/28 10:20:43;;;;;;;3.03;1.33;;;;;;;-1.90;68.71;98996.56;5068350;28;20040;-34
2023/02/28 10:23:36;;;;;;;2.80;1.50;;;;;;;-1.96;69.24;99001.63;5068115;28;20059;-36
2023/02/28 10:26:23;;;;;;;2.67;1.35;;;;;;;-1.87;69.26;98981.28;5065024;28;20092;-35
2023/02/28 10:28:51;;;;;;;6.40;1.58;;;;;;;-1.78;68.92;98973.66;5051477;28;20140;-35
2023/02/28 10:31:19;;;;;;;3.67;1.63;;;;;;;-1.66;69.09;98964.34;5084243;28;20043;-35
2023/02/28 10:33:45;;;;;;;3.38;1.85;;;;;;;-1.59;68.83;98953.34;5067692;28;20037;-35
2023/02/28 10:36:16;;;;;;;4.30;2.20;;;;;;;-1.73;69.17;98961.78;5051441;28;20060;-38
2023/02/28 10:38:43;;;;;;;2.58;1.58;;;;;;;-1.71;69.44;98962.66;5069522;28;20047;-36
2023/02/28 10:41:35;;;;;;;2.22;1.75;;;;;;;-1.69;69.61;98965.22;5047495;28;20045;-35
2023/02/28 10:44:14;;;;;;;3.83;1.40;;;;;;;-1.65;69.46;98961.81;5048016;28;20045;-35
2023/02/28 10:46:41;;;;;;;2.13;1.17;;;;;;;-1.67;69.67;98960.94;5066830;28;20043;-35
2023/02/28 10:49:33;;;;;;;3.70;1.13;;;;;;;-1.69;69.84;98959.25;5069300;28;20080;-36
2023/02/28 10:52:00;;;;;;;3.22;1.70;;;;;;;-1.72;69.94;98943.09;5068997;28;20048;-35
2023/02/28 10:54:34;;;;;;;4.55;2.42;;;;;;;-1.65;70.16;98935.47;5067704;28;20041;-36
2023/02/28 10:57:26;;;;;;;5.78;1.77;;;;;;;-1.53;69.96;98945.72;5068176;28;20044;-35
2023/02/28 10:59:54;;;;;;;3.60;1.90;;;;;;;-1.58;69.96;98917.69;5068032;28;20143;-35
2023/02/28 11:02:33;;;;;;;3.67;1.38;;;;;;;-1.60;70.18;98937.19;5047802;28;20044;-36
2023/02/28 11:04:59;;;;;;;3.15;1.40;;;;;;;-1.71;70.48;98904.06;5050018;28;20706;-35
2023/02/28 11:07:27;;;;;;;2.63;1.80;;;;;;;-1.89;70.74;98882.78;5067916;28;20071;-35
2023/02/28 11:09:57;;;;;;;6.05;2.05;;;;;;;-1.68;71.28;98912.56;5066481;28;20071;-36
2023/02/28 11:12:30;;;;;;;3.15;1.60;;;;;;;-1.56;71.24;98928.69;5069051;28;20143;-35
2023/02/28 11:14:59;;;;;;;4.43;2.13;;;;;;;-1.58;71.20;98912.56;5050652;28;20097;-35
2023/02/28 11:17:31;;;;;;;2.60;1.63;;;;;;;-1.45;70.94;98915.97;5047196;28;20041;-34
2023/02/28 11:20:03;;;;;;;3.22;1.92;;;;;;;-1.45;70.94;98900.69;5047431;28;20037;-35
2023/02/28 11:22:37;;;;;;;3.75;1.77;;;;;;;-1.40;71.18;98899.84;5047503;28;20119;-36
2023/02/28 11:25:09;;;;;;;8.00;2.42;;;;;;;-1.58;71.24;98873.50;5048156;28;20523;-36
2023/02/28 11:28:00;;;;;;;5.63;1.90;;;;;;;-1.27;71.41;98927.91;5063610;28;20099;-36
2023/02/28 11:30:35;;;;;;;2.50;1.27;;;;;;;-1.31;72.34;98902.38;5060913;28;20503;-36
2023/02/28 11:33:32;;;;;;;3.63;2.00;;;;;;;-1.26;73.16;98897.31;5068129;28;20052;-36
2023/02/28 11:36:04;;;;;;;3.72;1.92;;;;;;;-1.22;73.39;98898.16;5066260;28;20036;-35
2023/02/28 11:38:38;;;;;;;3.80;2.00;;;;;;;-1.13;73.68;98882.84;5066835;28;20048;-36
2023/02/28 11:41:23;;;;;;;3.10;2.00;;;;;;;-1.21;73.53;98876.91;5066778;28;20447;-35
2023/02/28 11:44:26;;;;;;;2.88;1.75;;;;;;;-1.39;74.83;98883.69;5068552;28;20032;-35
2023/02/28 11:46:59;;;;;;;4.00;1.83;;;;;;;-1.41;75.98;98871.78;5066426;28;20055;-36
2023/02/28 11:49:46;;;;;;;3.70;1.98;;;;;;;-1.43;76.79;98888.78;5067211;28;20044;-36
2023/02/28 11:52:30;;;;;;;4.43;1.85;;;;;;;-1.38;77.65;98872.66;5068422;28;20370;-35